Rechercher aéroport 
image banner adimage banner ad
image banner ad

FYWH - Windhoek/Hosea Kutako Intl

Situé à Windhoek, Namibia

ICAO - FYWH, IATA - WDH

Données fournies par Airmate  

Information générale

Coordonnées: S22°28'48" E17°28'15"
Élévation : 5641 feet MSL.
 
Voir autres Aéroports à Khomae

Données opérationnelles

Accessible au public
Heure actuelle UTC:
Heure actuelle locale:
Météo
METAR: FYWH 170600Z 17003KT CAVOK 19/14 Q1020 NOSIG
TAF: TAF FYWH 170400Z 1706/1806 23005KT CAVOK BECMG 1708/1710 10008KT 9999 SCT040 TEMPO 1713/1718 -TSRA FEW040CB BECMG 1720/1722 24006KT NSW NSC
Voir NOTAMs / SUP AIP / TFR affectant cet aéroport [VIEW]
Fréquences de communication: [VIEW]

Pistes:

Identifiant RWYQFULongueur (ft)Largeur (ft)SurfaceLDA (ft)
0863°14991148ASP
26243°14991148
16141°499998
34321°499998

Coordonnées de l'aéroport

Adresse: Windhoek Namibia

Vue satellite de FYWH